Time;durP1;ratioP1;P1;durP2;ratioP2;P2;SDS_P1;SDS_P2;PMS_P1;PMS_P2;Temp;Humidity;BMP_temperature;BMP_pressure;BME280_temperature;BME280_humidity;BME280_pressure;Samples;Min_cycle;Max_cycle;Signal;HPM_P1;HPM_P2
2022/08/17 00:00:53;;;;;;;11.25;6.03;;;;;;;21.60;66.92;98836.84;1702495;84;20997;-46
2022/08/17 00:03:24;;;;;;;10.38;5.83;;;;;;;21.59;66.83;98839.45;1702918;84;21218;-46
2022/08/17 00:06:01;;;;;;;8.50;5.83;;;;;;;21.57;66.79;98837.73;1702598;84;21010;-46
2022/08/17 00:08:33;;;;;;;11.63;5.72;;;;;;;21.53;66.93;98842.61;1702791;84;21101;-46
2022/08/17 00:11:02;;;;;;;11.50;5.72;;;;;;;21.53;66.96;98838.47;1701739;84;21703;-46
2022/08/17 00:13:36;;;;;;;11.38;6.70;;;;;;;21.59;66.74;98836.70;1703017;84;20955;-46
2022/08/17 00:16:11;;;;;;;11.35;5.65;;;;;;;21.59;66.58;98837.44;1702081;84;21001;-46
2022/08/17 00:18:38;;;;;;;9.70;6.30;;;;;;;21.58;66.60;98840.06;1702164;84;21089;-46
2022/08/17 00:21:06;;;;;;;9.30;6.03;;;;;;;21.57;66.62;98839.89;1702901;84;21245;-46
2022/08/17 00:23:34;;;;;;;14.95;6.35;;;;;;;21.52;66.63;98833.56;1702563;84;21050;-46
2022/08/17 00:26:02;;;;;;;11.22;6.00;;;;;;;21.49;66.61;98837.22;1679493;84;21552;-46
2022/08/17 00:28:30;;;;;;;11.35;5.50;;;;;;;21.46;66.70;98828.44;1679009;85;20966;-46
2022/08/17 00:30:58;;;;;;;13.45;6.00;;;;;;;21.48;66.54;98828.00;1679014;85;21074;-46
2022/08/17 00:33:28;;;;;;;13.50;6.28;;;;;;;21.44;66.53;98835.02;1678990;85;21238;-46
2022/08/17 00:35:55;;;;;;;;;;;;;;;21.41;66.58;98831.76;1681320;85;21017;-46
2022/08/17 00:38:24;;;;;;;13.25;6.37;;;;;;;21.38;66.50;98836.80;1678957;85;20147;-46
2022/08/17 00:40:58;;;;;;;11.40;6.00;;;;;;;21.24;66.79;98829.77;1678850;85;20973;-46
2022/08/17 00:43:36;;;;;;;11.33;6.00;;;;;;;21.21;66.83;98834.00;1679035;85;21113;-46
2022/08/17 00:46:08;;;;;;;10.82;5.95;;;;;;;21.18;66.83;98832.14;1679192;85;21306;-46
2022/08/17 00:48:35;;;;;;;14.35;5.87;;;;;;;21.19;66.81;98833.69;1678813;85;21523;-46
2022/08/17 00:51:24;;;;;;;13.55;6.97;;;;;;;21.16;66.89;98831.20;1679080;85;21053;-46
2022/08/17 00:54:14;;;;;;;12.53;6.25;;;;;;;21.12;66.84;98825.00;1678781;85;20973;-46
2022/08/17 00:56:58;;;;;;;14.53;7.12;;;;;;;21.08;66.92;98827.71;1679146;85;21057;-46
2022/08/17 00:59:29;;;;;;;12.85;6.65;;;;;;;21.01;66.98;98825.94;1678985;85;21307;-46
2022/08/17 01:01:56;;;;;;;13.32;6.60;;;;;;;21.02;67.06;98821.98;1679014;85;21053;-46
2022/08/17 01:04:23;;;;;;;10.48;6.35;;;;;;;21.04;66.97;98827.83;1679028;85;20997;-46
2022/08/17 01:06:51;;;;;;;12.45;6.67;;;;;;;21.02;66.95;98829.47;1679191;85;21583;-46
2022/08/17 01:09:18;;;;;;;13.78;7.50;;;;;;;20.97;67.02;98836.31;1679070;85;21066;-46
2022/08/17 01:11:47;;;;;;;12.63;7.08;;;;;;;20.95;67.10;98829.11;1678843;85;23113;-46
2022/08/17 01:14:15;;;;;;;13.78;6.85;;;;;;;20.92;67.26;98838.24;1679215;85;21001;-46
2022/08/17 01:16:43;;;;;;;12.03;7.08;;;;;;;20.90;67.42;98836.55;1679024;85;21607;-47
2022/08/17 01:19:33;;;;;;;12.28;6.90;;;;;;;20.93;67.62;98843.92;1679059;85;21085;-46
2022/08/17 01:22:13;;;;;;;;;;;;;;;20.94;67.83;98842.72;1681525;85;21531;-46
2022/08/17 01:24:43;;;;;;;12.47;7.28;;;;;;;20.89;68.18;98837.76;1678958;85;21155;-46
2022/08/17 01:27:12;;;;;;;13.62;7.45;;;;;;;20.74;68.70;98832.52;1679071;85;20981;-46
2022/08/17 01:29:42;;;;;;;10.87;7.33;;;;;;;20.73;68.82;98828.21;1679430;85;21070;-46
2022/08/17 01:32:09;;;;;;;13.20;6.78;;;;;;;20.72;68.87;98823.94;1678917;85;21029;-46
2022/08/17 01:34:37;;;;;;;18.87;6.90;;;;;;;20.73;68.90;98829.59;1679172;85;21029;-46
2022/08/17 01:37:04;;;;;;;11.25;7.03;;;;;;;20.75;68.96;98829.94;1679146;85;21158;-46
2022/08/17 01:39:37;;;;;;;12.15;7.37;;;;;;;20.73;69.02;98825.45;1679046;85;21065;-46
2022/08/17 01:42:24;;;;;;;11.20;7.33;;;;;;;20.72;68.98;98819.80;1679095;85;21649;-46
2022/08/17 01:44:55;;;;;;;16.05;6.72;;;;;;;20.69;69.02;98815.16;1678972;85;21629;-46
2022/08/17 01:47:23;;;;;;;11.30;7.12;;;;;;;20.68;69.01;98813.61;1679051;85;21608;-46
2022/08/17 01:49:50;;;;;;;9.68;7.40;;;;;;;20.70;68.95;98807.06;1678892;85;21914;-46
2022/08/17 01:52:17;;;;;;;12.75;7.17;;;;;;;20.70;68.94;98807.06;1678741;85;21546;-46
2022/08/17 01:54:46;;;;;;;11.95;7.30;;;;;;;20.68;68.94;98807.50;1678865;85;21020;-46
2022/08/17 01:57:13;;;;;;;14.15;8.10;;;;;;;20.68;68.90;98808.10;1679131;85;21031;-46
2022/08/17 01:59:41;;;;;;;14.40;7.22;;;;;;;20.66;68.84;98805.03;1679014;85;21057;-46
2022/08/17 02:02:09;;;;;;;11.25;6.75;;;;;;;20.64;68.79;98807.44;1678948;85;21261;-46
2022/08/17 02:04:37;;;;;;;10.30;7.40;;;;;;;20.69;68.68;98808.27;1679030;85;21047;-46
2022/08/17 02:07:04;;;;;;;11.30;7.40;;;;;;;20.71;68.58;98805.26;1678954;85;21288;-46
2022/08/17 02:09:32;;;;;;;11.63;7.33;;;;;;;20.70;68.48;98798.20;1679083;85;21038;-46
2022/08/17 02:12:02;;;;;;;13.13;8.33;;;;;;;20.69;68.39;98797.25;1678982;85;21061;-46
2022/08/17 02:14:29;;;;;;;14.93;7.70;;;;;;;20.65;68.32;98794.62;1679374;85;21713;-46
2022/08/17 02:16:56;;;;;;;11.73;7.35;;;;;;;20.66;68.23;98798.92;1679141;85;20958;-46
2022/08/17 02:19:23;;;;;;;13.85;7.90;;;;;;;20.70;68.05;98802.94;1679173;85;21105;-46
2022/08/17 02:21:52;;;;;;;14.38;7.97;;;;;;;20.68;67.99;98797.86;1679213;85;21053;-46
2022/08/17 02:24:26;;;;;;;13.98;7.87;;;;;;;20.65;67.96;98801.50;1679121;85;21550;-46
2022/08/17 02:26:53;;;;;;;15.75;7.62;;;;;;;20.63;67.98;98793.50;1678922;85;21226;-46
2022/08/17 02:29:20;;;;;;;13.18;7.42;;;;;;;20.57;67.95;98791.16;1679032;85;21001;-46
2022/08/17 02:31:47;;;;;;;11.48;7.55;;;;;;;20.55;67.90;98788.05;1679033;85;20957;-46
2022/08/17 02:34:15;;;;;;;14.80;7.12;;;;;;;20.56;67.83;98789.00;1679163;85;21563;-46
2022/08/17 02:36:42;;;;;;;13.30;7.12;;;;;;;20.54;67.84;98789.26;1679060;85;21599;-46
2022/08/17 02:39:10;;;;;;;10.88;7.70;;;;;;;20.52;67.80;98792.47;1678949;85;21227;-46
2022/08/17 02:41:38;;;;;;;12.20;6.90;;;;;;;20.47;67.79;98788.11;1679080;85;21034;-46
2022/08/17 02:44:05;;;;;;;11.85;7.12;;;;;;;20.45;67.75;98791.90;1678936;85;21097;-46
2022/08/17 02:46:32;;;;;;;11.80;6.95;;;;;;;20.46;67.64;98794.22;1678967;85;21049;-46
2022/08/17 02:48:59;;;;;;;9.83;6.90;;;;;;;20.46;67.52;98789.31;1679055;85;21556;-46
2022/08/17 02:51:27;;;;;;;12.75;7.22;;;;;;;20.46;67.52;98794.83;1679003;85;21248;-46
2022/08/17 02:53:54;;;;;;;12.18;7.90;;;;;;;20.43;67.56;98784.70;1679285;85;21034;-46
2022/08/17 02:56:21;;;;;;;11.85;7.15;;;;;;;20.40;67.55;98789.09;1678981;85;21085;-46
2022/08/17 02:58:48;;;;;;;14.95;7.87;;;;;;;20.36;67.55;98785.67;1679257;85;21120;-46
2022/08/17 03:01:15;;;;;;;13.25;7.35;;;;;;;20.31;67.59;98788.37;1679264;85;21539;-46
2022/08/17 03:03:42;;;;;;;10.78;6.55;;;;;;;20.30;67.61;98784.64;1678988;85;21257;-46
2022/08/17 03:06:09;;;;;;;13.93;6.95;;;;;;;20.32;67.54;98788.54;1678901;85;21061;-46
2022/08/17 03:08:36;;;;;;;12.75;6.97;;;;;;;20.31;67.42;98792.50;1674699;85;21057;-46
2022/08/17 03:11:05;;;;;;;11.22;6.78;;;;;;;20.30;67.43;98791.52;1678781;85;21105;-46
2022/08/17 03:13:32;;;;;;;13.93;7.67;;;;;;;20.26;67.46;98794.98;1674158;85;21085;-46
2022/08/17 03:16:00;;;;;;;13.45;7.75;;;;;;;20.25;67.50;98794.81;1678973;85;21154;-46
2022/08/17 03:18:27;;;;;;;12.53;6.40;;;;;;;20.23;67.49;98795.88;1678938;85;20946;-46
2022/08/17 03:20:59;;;;;;;11.60;6.90;;;;;;;20.19;67.54;98802.84;1678901;85;21881;-46
2022/08/17 03:23:27;;;;;;;12.88;7.17;;;;;;;20.22;67.53;98792.34;1679146;85;21076;-46
2022/08/17 03:25:54;;;;;;;9.73;6.90;;;;;;;20.23;67.57;98793.12;1679816;85;21038;-46
2022/08/17 03:28:21;;;;;;;10.23;7.05;;;;;;;20.22;67.62;98793.72;1684291;85;21275;-46
2022/08/17 03:30:49;;;;;;;12.47;7.00;;;;;;;20.23;67.57;98797.25;1684308;85;21020;-46
2022/08/17 03:33:16;;;;;;;11.00;6.78;;;;;;;20.22;67.56;98800.60;1684452;85;21595;-46
2022/08/17 03:35:44;;;;;;;12.47;6.47;;;;;;;20.24;67.57;98797.39;1684448;85;21485;-46
2022/08/17 03:38:11;;;;;;;14.98;6.60;;;;;;;20.29;67.53;98800.38;1684515;85;21056;-46
2022/08/17 03:40:38;;;;;;;13.38;7.33;;;;;;;20.33;67.42;98806.58;1684596;85;21110;-46
2022/08/17 03:43:09;;;;;;;12.43;7.20;;;;;;;20.33;67.45;98803.83;1684315;85;21465;-46
2022/08/17 03:56:46;;;;;;;11.95;6.92;;;;;;;20.47;67.40;98803.26;1684247;85;20977;-46
2022/08/17 03:59:19;;;;;;;11.08;6.72;;;;;;;20.51;67.38;98803.92;1683502;85;21024;-46
2022/08/17 04:01:50;;;;;;;11.83;7.03;;;;;;;20.55;67.30;98795.71;1684224;85;21053;-46
2022/08/17 04:04:18;;;;;;;10.50;6.75;;;;;;;20.61;67.15;98802.83;1684326;85;21045;-46
2022/08/17 04:06:45;;;;;;;11.30;6.45;;;;;;;20.65;67.08;98799.35;1684839;85;21590;-46
2022/08/17 04:09:12;;;;;;;10.05;6.42;;;;;;;20.72;66.99;98789.50;1684369;85;20962;-46
2022/08/17 04:11:40;;;;;;;11.90;6.17;;;;;;;20.79;66.89;98788.66;1684539;85;20957;-46
2022/08/17 04:14:07;;;;;;;9.38;6.30;;;;;;;20.88;66.79;98783.08;1684583;85;21076;-46
2022/08/17 04:16:35;;;;;;;10.10;6.80;;;;;;;20.93;66.70;98781.92;1684470;85;21029;-46
2022/08/17 04:19:03;;;;;;;7.97;6.37;;;;;;;20.99;66.63;98787.05;1684566;85;21315;-46
2022/08/17 04:21:30;;;;;;;10.15;6.35;;;;;;;21.07;66.57;98779.30;1684343;85;20958;-46
2022/08/17 04:23:57;;;;;;;11.10;5.90;;;;;;;21.12;66.34;98781.50;1684387;85;20993;-46
2022/08/17 04:26:24;;;;;;;10.72;5.80;;;;;;;21.19;65.91;98776.57;1683999;85;22065;-46
2022/08/17 04:28:51;;;;;;;11.53;6.08;;;;;;;21.27;65.73;98775.71;1685742;83;21111;-46
2022/08/17 04:31:20;;;;;;;10.00;6.17;;;;;;;21.35;65.48;98779.76;1700581;84;21220;-46
2022/08/17 04:33:47;;;;;;;10.90;6.20;;;;;;;21.41;65.01;98777.21;1700783;84;20969;-46
2022/08/17 04:36:14;;;;;;;11.50;6.03;;;;;;;21.43;64.95;98775.56;1700589;84;20996;-46
2022/08/17 04:42:06;;;;;;;9.53;6.12;;;;;;;21.57;64.97;98777.05;1797127;79;22117;-45
2022/08/17 04:44:34;;;;;;;10.58;5.85;;;;;;;21.60;64.72;98774.16;1757278;81;20933;-45
2022/08/17 04:47:01;;;;;;;9.30;5.95;;;;;;;21.69;64.62;98769.31;1757127;81;21134;-45
2022/08/17 04:49:29;;;;;;;7.90;5.60;;;;;;;21.75;64.45;98766.16;1756972;81;21575;-45
2022/08/17 04:51:56;;;;;;;11.10;6.17;;;;;;;21.81;64.58;98756.09;1757484;81;21551;-45
2022/08/17 04:54:22;;;;;;;10.00;6.03;;;;;;;21.88;64.41;98754.44;1757496;81;21008;-45
2022/08/17 04:56:50;;;;;;;8.90;6.25;;;;;;;21.95;64.22;98761.12;1757435;81;20976;-45
2022/08/17 04:59:19;;;;;;;9.55;5.85;;;;;;;22.03;64.10;98762.38;1757449;81;21238;-45
2022/08/17 05:01:48;;;;;;;;;;;;;;;22.07;64.19;98760.25;1760130;81;21574;-45
2022/08/17 05:04:21;;;;;;;12.53;6.30;;;;;;;22.15;64.18;98758.02;1757600;81;20502;-45
2022/08/17 05:06:48;;;;;;;16.97;6.17;;;;;;;22.23;64.25;98755.74;1757667;81;20930;-45
2022/08/17 05:09:16;;;;;;;7.40;5.72;;;;;;;22.35;64.28;98758.44;1757271;81;21499;-45
2022/08/17 05:11:45;;;;;;;11.83;6.30;;;;;;;22.44;64.09;98755.71;1757740;81;21053;-45
2022/08/17 05:14:12;;;;;;;9.38;5.90;;;;;;;22.55;64.19;98755.30;1757193;81;21045;-45
2022/08/17 05:16:39;;;;;;;10.95;6.08;;;;;;;22.67;64.25;98761.92;1757176;81;21029;-45
2022/08/17 05:19:06;;;;;;;9.48;6.62;;;;;;;22.76;63.93;98764.14;1757218;81;21001;-45
2022/08/17 05:21:33;;;;;;;11.40;6.35;;;;;;;22.85;63.20;98762.78;1757105;81;21045;-45
2022/08/17 05:24:02;;;;;;;12.55;5.53;;;;;;;22.98;63.00;98763.28;1756855;81;23172;-45
2022/08/17 05:26:29;;;;;;;10.78;6.35;;;;;;;23.11;62.83;98766.69;1753906;81;20942;-45
2022/08/17 05:28:58;;;;;;;11.35;6.65;;;;;;;23.22;62.30;98765.64;1757252;81;20978;-45
2022/08/17 05:31:25;;;;;;;11.57;6.75;;;;;;;23.29;62.10;98781.91;1756950;81;21511;-45
2022/08/17 05:33:52;;;;;;;10.68;6.37;;;;;;;23.38;61.98;98779.93;1757140;81;21713;-45
2022/08/17 05:36:19;;;;;;;10.48;6.60;;;;;;;23.47;62.01;98786.75;1757171;81;21134;-45
2022/08/17 05:38:46;;;;;;;11.70;6.47;;;;;;;23.54;61.86;98785.05;1756819;81;21025;-45
2022/08/17 05:41:13;;;;;;;11.73;7.12;;;;;;;23.60;61.44;98791.52;1749204;81;21560;-45
2022/08/17 05:43:41;;;;;;;9.68;6.58;;;;;;;23.64;60.97;98790.13;1744114;81;21018;-45
2022/08/17 05:46:26;;;;;;;9.90;6.37;;;;;;;23.69;60.67;98792.28;1744233;82;20985;-45
2022/08/17 05:49:01;;;;;;;11.28;6.80;;;;;;;23.74;60.39;98793.05;1744042;81;21195;-45
2022/08/17 05:52:06;;;;;;;10.72;6.37;;;;;;;23.75;60.39;98796.59;1687681;84;21044;-45
2022/08/17 05:55:07;;;;;;;12.53;6.55;;;;;;;23.81;60.81;98796.91;1707928;84;20930;-45
2022/08/17 05:58:08;;;;;;;12.35;6.22;;;;;;;23.93;60.54;98797.19;1707475;84;21523;-45
2022/08/17 06:00:54;;;;;;;13.25;6.67;;;;;;;23.99;60.15;98802.26;1660681;83;21116;-45
2022/08/17 06:03:50;;;;;;;11.25;6.62;;;;;;;24.04;59.87;98804.41;1696519;83;22157;-45
2022/08/17 06:06:44;;;;;;;11.90;7.15;;;;;;;24.08;59.94;98802.24;1733314;82;20965;-45
2022/08/17 06:09:49;;;;;;;14.53;7.12;;;;;;;24.13;59.83;98805.16;1702119;84;21037;-45
2022/08/17 06:12:28;;;;;;;14.70;7.50;;;;;;;24.17;59.46;98797.48;1742860;81;21500;-45
2022/08/17 06:15:11;;;;;;;16.37;7.55;;;;;;;24.22;59.57;98807.17;1743456;81;21009;-45
2022/08/17 06:17:39;;;;;;;12.63;7.40;;;;;;;24.29;59.89;98801.32;1707649;84;23171;-45
2022/08/17 06:20:12;;;;;;;11.75;7.30;;;;;;;24.35;60.23;98803.59;1707577;84;20974;-45
2022/08/17 06:22:47;;;;;;;10.82;6.58;;;;;;;24.44;60.03;98804.98;1707715;84;21507;-45
2022/08/17 06:25:43;;;;;;;14.65;7.85;;;;;;;24.53;60.30;98804.95;1708024;84;20890;-45
2022/08/17 06:28:14;;;;;;;15.45;7.00;;;;;;;24.65;60.21;98803.97;1707700;84;21559;-45
2022/08/17 06:30:49;;;;;;;9.38;7.03;;;;;;;24.75;59.95;98812.24;1707949;84;21523;-45
2022/08/17 06:33:25;;;;;;;12.07;7.45;;;;;;;24.82;59.69;98804.37;1706578;84;21024;-45
2022/08/17 06:36:28;;;;;;;11.48;6.97;;;;;;;24.91;59.75;98809.12;1707796;84;20886;-45
2022/08/17 06:39:25;;;;;;;11.33;7.58;;;;;;;24.98;59.70;98807.41;1707806;84;21012;-45
2022/08/17 06:42:43;;;;;;;11.48;6.80;;;;;;;25.04;59.53;98808.28;1713339;83;21037;-45
2022/08/17 06:45:16;;;;;;;14.18;7.50;;;;;;;25.07;59.38;98819.22;1715243;83;21214;-45
2022/08/17 06:47:50;;;;;;;12.18;6.70;;;;;;;25.07;59.39;98815.68;1715540;83;20972;-45
2022/08/17 06:50:40;;;;;;;10.88;7.40;;;;;;;25.10;59.08;98816.89;1711969;83;20968;-45
2022/08/17 06:53:34;;;;;;;11.78;7.15;;;;;;;25.16;58.43;98819.02;1715225;83;21016;-45
2022/08/17 06:56:09;;;;;;;13.88;7.42;;;;;;;25.16;57.84;98812.85;1715095;83;21561;-45
2022/08/17 06:58:40;;;;;;;9.43;7.00;;;;;;;25.15;57.86;98818.25;1715693;83;21196;-45
2022/08/17 07:01:15;;;;;;;9.78;6.53;;;;;;;25.17;57.67;98816.40;1715203;83;21037;-45
2022/08/17 07:04:07;;;;;;;16.30;7.17;;;;;;;25.22;57.60;98820.69;1715357;83;21512;-45
2022/08/17 07:07:00;;;;;;;14.80;6.33;;;;;;;25.28;57.73;98822.17;1751486;82;21174;-45
2022/08/17 07:09:32;;;;;;;11.43;6.87;;;;;;;25.33;57.70;98820.91;1751448;82;22159;-45
2022/08/17 07:12:09;;;;;;;12.85;5.95;;;;;;;25.36;57.02;98824.14;1715141;83;21247;-45
2022/08/17 07:14:59;;;;;;;11.03;5.92;;;;;;;25.40;56.19;98823.34;1715291;83;20993;-45
2022/08/17 07:17:26;;;;;;;10.70;6.78;;;;;;;25.44;56.05;98828.09;1715284;83;20985;-45
2022/08/17 07:20:00;;;;;;;10.30;6.65;;;;;;;25.49;55.94;98822.50;1715141;83;21011;-45
2022/08/17 07:22:49;;;;;;;15.10;6.58;;;;;;;25.57;56.09;98818.77;1688119;83;21020;-45
2022/08/17 07:25:20;;;;;;;10.90;6.28;;;;;;;25.65;55.18;98810.24;1715525;83;21146;-45
2022/08/17 07:27:51;;;;;;;11.43;6.27;;;;;;;25.73;55.24;98812.79;1715677;83;20894;-45
2022/08/17 07:30:32;;;;;;;13.95;6.55;;;;;;;25.81;54.58;98811.17;1715495;83;21007;-45
2022/08/17 07:33:04;;;;;;;14.90;6.50;;;;;;;25.89;53.86;98808.19;1715404;83;21048;-45
2022/08/17 07:35:39;;;;;;;11.00;5.87;;;;;;;25.94;53.72;98813.08;1733061;82;21089;-45
2022/08/17 07:38:23;;;;;;;12.78;6.33;;;;;;;26.00;53.74;98809.02;1751565;82;21552;-45
2022/08/17 07:41:01;;;;;;;9.28;5.90;;;;;;;26.09;53.67;98811.09;1750020;82;20938;-45
2022/08/17 07:43:40;;;;;;;8.60;5.97;;;;;;;26.16;52.54;98806.53;1743529;82;21049;-45
2022/08/17 07:49:22;;;;;;;10.63;6.50;;;;;;;26.39;51.78;98811.87;1743477;81;21036;-45
2022/08/17 07:51:54;;;;;;;11.73;5.85;;;;;;;26.53;51.55;98804.80;1743396;81;21212;-45
2022/08/17 07:54:39;;;;;;;11.38;5.95;;;;;;;26.69;51.67;98802.88;1743617;82;21532;-45
2022/08/17 07:57:22;;;;;;;11.10;6.17;;;;;;;26.85;51.43;98805.78;1743472;81;21012;-45
2022/08/17 08:00:08;;;;;;;10.78;6.50;;;;;;;26.98;50.06;98806.25;1743379;82;20986;-45
2022/08/17 08:02:44;;;;;;;12.03;6.53;;;;;;;27.08;50.38;98807.05;1743441;82;21039;-45
2022/08/17 08:05:27;;;;;;;14.70;7.55;;;;;;;27.18;49.50;98801.49;1743564;81;21159;-45
2022/08/17 08:08:02;;;;;;;9.55;6.22;;;;;;;27.27;48.69;98799.82;1742444;81;20982;-45
2022/08/17 08:10:34;;;;;;;12.43;6.37;;;;;;;27.36;48.80;98803.86;1736967;82;21457;-45
2022/08/17 08:13:09;;;;;;;13.45;6.60;;;;;;;27.43;48.60;98804.23;1743790;82;21539;-45
2022/08/17 08:15:47;;;;;;;11.93;6.20;;;;;;;27.51;48.30;98797.63;1743705;81;21540;-45
2022/08/17 08:18:29;;;;;;;14.87;6.22;;;;;;;27.62;48.75;98793.59;1743581;81;21267;-45
2022/08/17 08:21:45;;;;;;;11.33;6.55;;;;;;;27.78;48.82;98795.81;1743072;81;21000;-45
2022/08/17 08:24:35;;;;;;;9.98;6.15;;;;;;;27.96;48.65;98791.94;1743528;81;21089;-45
2022/08/17 08:27:26;;;;;;;10.45;6.37;;;;;;;28.16;47.83;98796.72;1743324;82;21006;-45
2022/08/17 08:30:04;;;;;;;11.25;6.62;;;;;;;28.33;47.48;98800.42;1743324;81;20957;-45
2022/08/17 08:32:37;;;;;;;9.48;5.87;;;;;;;28.46;46.84;98809.94;1737881;82;22720;-45
2022/08/17 08:35:39;;;;;;;13.43;6.55;;;;;;;28.57;46.45;98802.27;1707663;83;20988;-45
2022/08/17 08:38:26;;;;;;;13.62;6.20;;;;;;;28.68;46.09;98800.97;1743484;82;21006;-45
2022/08/17 08:41:01;;;;;;;10.80;6.67;;;;;;;28.77;45.11;98801.44;1744077;81;21069;-46
2022/08/17 08:43:49;;;;;;;10.38;5.87;;;;;;;28.87;45.64;98809.12;1716393;83;21033;-46
2022/08/17 08:46:49;;;;;;;8.80;6.42;;;;;;;28.98;46.81;98806.27;1720624;83;21218;-45
2022/08/17 08:50:03;;;;;;;11.25;6.10;;;;;;;29.10;46.08;98799.48;1720806;83;21036;-45
2022/08/17 08:53:00;;;;;;;8.85;6.47;;;;;;;29.14;45.25;98802.20;1720864;83;20988;-45
2022/08/17 08:55:49;;;;;;;9.18;6.10;;;;;;;29.07;45.33;98806.84;1720787;83;21083;-45
2022/08/17 08:58:49;;;;;;;12.33;6.83;;;;;;;29.02;45.43;98804.01;1720825;83;21016;-45
2022/08/17 09:01:57;;;;;;;12.00;6.80;;;;;;;28.96;45.14;98798.39;1720715;83;21186;-45
2022/08/17 09:04:44;;;;;;;15.32;6.85;;;;;;;28.95;45.38;98792.04;1721013;83;22756;-45
2022/08/17 09:07:41;;;;;;;10.05;6.10;;;;;;;29.03;44.73;98790.19;1720853;83;20968;-45
2022/08/17 09:10:49;;;;;;;13.43;6.28;;;;;;;29.13;45.15;98798.50;1720841;83;21087;-45
2022/08/17 09:13:36;;;;;;;12.73;6.67;;;;;;;29.21;45.00;98797.52;1720823;83;20997;-45
2022/08/17 09:16:14;;;;;;;11.78;6.58;;;;;;;29.33;45.20;98803.34;1721044;83;21542;-45
2022/08/17 09:18:50;;;;;;;11.95;6.53;;;;;;;29.48;45.35;98798.97;1694774;83;20986;-45
2022/08/17 09:21:23;;;;;;;11.03;6.00;;;;;;;29.67;44.70;98792.30;1720585;83;21060;-45
2022/08/17 09:23:58;;;;;;;11.50;6.58;;;;;;;29.85;44.27;98789.67;1720434;83;21001;-45
2022/08/17 09:26:32;;;;;;;11.40;6.58;;;;;;;30.03;43.81;98792.02;1720794;83;21044;-45
2022/08/17 09:29:07;;;;;;;10.55;6.28;;;;;;;30.22;43.40;98789.63;1720844;83;21303;-45
2022/08/17 09:31:54;;;;;;;17.20;7.00;;;;;;;30.39;42.81;98793.85;1694732;83;21012;-46
2022/08/17 09:34:42;;;;;;;12.90;6.42;;;;;;;30.57;42.38;98796.80;1720904;83;21573;-45
2022/08/17 09:37:47;;;;;;;13.28;6.40;;;;;;;30.78;41.75;98788.27;1720846;83;21573;-45
2022/08/17 09:40:24;;;;;;;13.45;6.35;;;;;;;30.99;41.25;98782.48;1720925;83;21585;-45
2022/08/17 09:43:11;;;;;;;13.32;6.33;;;;;;;31.22;41.18;98779.03;1716891;83;21106;-46
2022/08/17 09:45:51;;;;;;;14.58;6.28;;;;;;;31.43;40.38;98783.01;1715286;83;21171;-45
2022/08/17 09:48:29;;;;;;;13.40;6.45;;;;;;;31.66;40.18;98780.15;1715395;83;21582;-45
2022/08/17 09:51:17;;;;;;;13.13;6.17;;;;;;;31.87;40.12;98779.25;1715393;83;21080;-46
2022/08/17 09:53:44;;;;;;;13.65;6.75;;;;;;;32.11;39.72;98774.41;1715357;83;20993;-45
2022/08/17 09:56:26;;;;;;;11.68;5.97;;;;;;;32.38;38.92;98770.52;1715241;83;21236;-45
2022/08/17 09:59:15;;;;;;;12.23;6.40;;;;;;;32.51;39.08;98780.47;1715473;83;20949;-46
2022/08/17 10:01:57;;;;;;;14.15;6.40;;;;;;;32.70;37.95;98775.73;1715222;83;21036;-46
2022/08/17 10:05:05;;;;;;;15.55;6.78;;;;;;;32.87;36.99;98779.16;1715509;83;21037;-46
2022/08/17 10:07:46;;;;;;;14.40;6.42;;;;;;;32.95;36.96;98773.06;1715669;83;21521;-45
2022/08/17 10:10:41;;;;;;;16.80;6.65;;;;;;;32.95;36.88;98775.87;1750834;82;23182;-46
2022/08/17 10:13:40;;;;;;;10.50;6.22;;;;;;;32.97;36.50;98776.75;1715285;83;20933;-45
2022/08/17 10:16:29;;;;;;;;;;;;;;;32.91;36.39;98774.64;1718059;83;21040;-46
2022/08/17 10:19:07;;;;;;;13.35;6.30;;;;;;;32.81;36.36;98776.27;1698949;84;21829;-46
2022/08/17 10:27:25;;;;;;;15.32;6.90;;;;;;;32.32;36.88;98773.36;1696592;83;21598;-46
2022/08/17 10:29:55;;;;;;;12.13;6.58;;;;;;;32.25;37.36;98775.31;1716852;83;21016;-46
2022/08/17 10:32:53;;;;;;;19.73;7.00;;;;;;;32.23;37.28;98769.48;1718797;83;21088;-46
2022/08/17 10:35:39;;;;;;;13.85;6.70;;;;;;;32.22;36.93;98772.16;1718478;83;21112;-45
2022/08/17 10:38:39;;;;;;;15.05;6.42;;;;;;;32.12;37.62;98775.93;1716748;83;21107;-45
2022/08/17 10:41:35;;;;;;;16.32;6.67;;;;;;;32.09;37.53;98774.79;1716221;83;21811;-45
2022/08/17 10:44:36;;;;;;;16.37;6.30;;;;;;;32.08;37.54;98768.41;1700880;84;21664;-46
2022/08/17 10:47:13;;;;;;;13.15;6.00;;;;;;;32.06;37.23;98766.76;1691665;84;21592;-45
2022/08/17 10:49:46;;;;;;;14.15;6.40;;;;;;;31.98;37.49;98764.41;1707763;84;21017;-45
2022/08/17 10:52:25;;;;;;;16.05;6.42;;;;;;;31.97;37.52;98768.48;1695192;84;21926;-46
2022/08/17 10:54:57;;;;;;;15.20;7.35;;;;;;;31.92;37.55;98770.68;1695123;84;21088;-46
2022/08/17 10:57:35;;;;;;;12.63;6.08;;;;;;;31.90;37.41;98771.86;1695186;84;21009;-46
2022/08/17 11:00:28;;;;;;;15.48;6.53;;;;;;;31.82;37.49;98771.63;1695293;84;21067;-46
2022/08/17 11:02:56;;;;;;;14.23;6.33;;;;;;;31.75;37.59;98766.59;1694745;84;21029;-46
2022/08/17 11:05:52;;;;;;;14.33;6.60;;;;;;;31.85;38.03;98762.84;1695283;84;21113;-46
2022/08/17 11:08:55;;;;;;;16.17;6.50;;;;;;;32.10;38.28;98759.46;1694976;84;21039;-46
2022/08/17 11:11:34;;;;;;;13.38;6.08;;;;;;;32.50;37.37;98757.26;1695032;84;21064;-45
2022/08/17 11:14:22;;;;;;;14.00;6.08;;;;;;;32.91;36.49;98759.96;1694569;84;24623;-45
2022/08/17 11:17:13;;;;;;;9.53;5.40;;;;;;;33.29;36.37;98753.80;1694948;84;21034;-45
2022/08/17 11:19:52;;;;;;;11.53;6.00;;;;;;;33.73;35.01;98753.89;1695081;84;21237;-45
2022/08/17 11:22:56;;;;;;;16.37;6.00;;;;;;;34.16;33.90;98745.95;1672673;84;20989;-46
2022/08/17 11:25:42;;;;;;;10.95;6.45;;;;;;;34.57;33.89;98741.34;1694949;84;21014;-45
2022/08/17 11:28:18;;;;;;;12.82;5.67;;;;;;;35.04;33.70;98743.67;1695073;84;21166;-45
2022/08/17 11:30:48;;;;;;;11.25;5.70;;;;;;;35.41;32.86;98739.86;1695139;84;21053;-45
2022/08/17 11:33:43;;;;;;;12.10;5.62;;;;;;;35.64;32.36;98738.72;1694962;84;21222;-46
2022/08/17 11:36:28;;;;;;;15.05;5.83;;;;;;;35.76;32.61;98742.08;1695187;84;21041;-46
2022/08/17 11:39:18;;;;;;;10.15;5.80;;;;;;;35.82;32.41;98742.07;1663502;84;21105;-46
2022/08/17 11:42:14;;;;;;;13.22;6.17;;;;;;;35.87;31.95;98735.55;1695306;83;21112;-46
2022/08/17 11:44:55;;;;;;;16.80;6.87;;;;;;;36.11;32.29;98738.05;1719131;83;21058;-46
2022/08/17 11:53:41;;;;;;;16.00;6.80;;;;;;;37.04;31.13;98720.53;1720733;83;21025;-46
2022/08/17 11:56:39;;;;;;;13.60;6.80;;;;;;;37.22;30.51;98718.86;1717934;83;21659;-46
2022/08/17 11:59:44;;;;;;;16.37;7.15;;;;;;;37.25;30.01;98715.55;1720750;83;21584;-46
2022/08/17 12:02:33;;;;;;;13.88;6.95;;;;;;;37.12;30.38;98724.93;1715511;83;21184;-45
2022/08/17 12:05:23;;;;;;;12.68;6.50;;;;;;;36.88;31.01;98730.33;1719853;83;21014;-46
2022/08/17 12:08:14;;;;;;;11.55;6.72;;;;;;;36.73;31.00;98728.05;1720540;83;20935;-46
2022/08/17 12:11:06;;;;;;;13.45;6.85;;;;;;;36.56;31.40;98725.63;1720490;83;20962;-46
2022/08/17 12:13:44;;;;;;;11.78;6.80;;;;;;;36.35;31.19;98722.09;1720841;83;21034;-46
2022/08/17 12:16:19;;;;;;;11.78;6.72;;;;;;;36.07;31.75;98726.31;1720724;83;21243;-46
2022/08/17 12:19:01;;;;;;;14.20;6.90;;;;;;;35.80;32.27;98727.75;1720787;83;20935;-46
2022/08/17 12:21:48;;;;;;;11.57;6.65;;;;;;;35.54;32.15;98727.14;1720547;83;21015;-46
2022/08/17 12:24:21;;;;;;;13.22;6.62;;;;;;;35.29;32.83;98724.50;1720641;83;21090;-46
2022/08/17 12:26:54;;;;;;;11.73;6.53;;;;;;;35.09;33.36;98723.09;1720595;83;21046;-46
2022/08/17 12:29:21;;;;;;;13.18;6.58;;;;;;;34.94;33.71;98719.30;1720950;83;21135;-46
2022/08/17 12:31:50;;;;;;;12.30;7.12;;;;;;;34.76;34.34;98720.92;1720808;83;21010;-46
2022/08/17 12:34:34;;;;;;;16.42;6.72;;;;;;;34.57;34.61;98724.45;1721076;83;21002;-46
2022/08/17 12:37:14;;;;;;;18.27;6.90;;;;;;;34.38;34.37;98727.31;1720770;83;21034;-46
2022/08/17 12:40:00;;;;;;;13.88;7.08;;;;;;;34.08;34.97;98728.20;1720253;83;21110;-46
2022/08/17 12:42:38;;;;;;;13.00;6.90;;;;;;;33.82;35.35;98732.41;1720626;83;21105;-46